Time;durP1;ratioP1;P1;durP2;ratioP2;P2;SDS_P1;SDS_P2;PMS_P1;PMS_P2;Temp;Humidity;BMP_temperature;BMP_pressure;BME280_temperature;BME280_humidity;BME280_pressure;Samples;Min_cycle;Max_cycle;Signal;HPM_P1;HPM_P2
2021/08/25 00:00:14;;;;;;;3.17;2.87;;;;;;;19.12;100.00;96424.53;4953777;28;20209;-76
2021/08/25 00:02:41;;;;;;;3.97;2.83;;;;;;;19.19;100.00;96426.19;4954042;28;20228;-76
2021/08/25 00:05:10;;;;;;;4.50;3.00;;;;;;;19.29;100.00;96419.56;4953585;29;20610;-76
2021/08/25 00:07:37;;;;;;;3.70;2.63;;;;;;;19.01;100.00;96424.13;4953401;28;20213;-77
2021/08/25 00:10:05;;;;;;;3.30;2.83;;;;;;;19.04;100.00;96422.91;4953313;28;20276;-76
2021/08/25 00:12:33;;;;;;;3.17;2.87;;;;;;;19.00;100.00;96411.84;4953142;29;20245;-76
2021/08/25 00:15:00;;;;;;;8.43;3.10;;;;;;;18.83;100.00;96409.84;4953683;28;20281;-76
2021/08/25 00:17:28;;;;;;;3.13;2.83;;;;;;;18.82;100.00;96402.88;4954995;28;20198;-77
2021/08/25 00:19:56;;;;;;;3.13;2.80;;;;;;;18.92;100.00;96404.09;4957330;28;20682;-77
2021/08/25 00:22:23;;;;;;;6.13;2.90;;;;;;;18.88;100.00;96404.72;4956935;28;20202;-77
2021/08/25 00:24:51;;;;;;;3.30;3.00;;;;;;;18.99;100.00;96404.09;4957106;29;20245;-77
2021/08/25 00:27:18;;;;;;;3.57;2.87;;;;;;;18.68;100.00;96402.88;4956878;28;20206;-77
2021/08/25 00:29:45;;;;;;;2.70;2.50;;;;;;;18.68;100.00;96402.88;4956769;29;20226;-76
2021/08/25 00:32:13;;;;;;;3.77;3.37;;;;;;;18.66;100.00;96398.75;4956345;28;20198;-77
2021/08/25 00:34:41;;;;;;;3.53;2.90;;;;;;;18.62;100.00;96393.03;4956781;29;20249;-77
2021/08/25 00:37:09;;;;;;;6.50;2.90;;;;;;;18.58;100.00;96397.13;4956910;28;20197;-76
2021/08/25 00:39:36;;;;;;;3.97;3.37;;;;;;;18.60;100.00;96395.09;4956800;29;20220;-76
2021/08/25 00:42:03;;;;;;;3.70;2.77;;;;;;;18.75;100.00;96390.38;4956307;29;20205;-76
2021/08/25 00:44:31;;;;;;;3.47;3.17;;;;;;;18.81;100.00;96382.59;4956850;28;20194;-76
2021/08/25 00:46:58;;;;;;;3.53;3.17;;;;;;;18.87;100.00;96373.78;4956406;28;20206;-76
2021/08/25 00:49:25;;;;;;;3.23;2.93;;;;;;;18.93;100.00;96370.28;4956200;29;20312;-76
2021/08/25 00:51:54;;;;;;;5.17;3.23;;;;;;;18.94;100.00;96370.06;4956268;28;20678;-76
2021/08/25 00:54:22;;;;;;;4.00;3.70;;;;;;;18.63;100.00;96376.03;4956348;29;20651;-77
2021/08/25 00:56:50;;;;;;;3.17;2.93;;;;;;;18.47;100.00;96369.28;4956186;28;20198;-77
2021/08/25 00:59:20;;;;;;;4.23;3.30;;;;;;;18.50;100.00;96373.41;4956064;29;20786;-77
2021/08/25 01:01:59;;;;;;;4.40;3.27;;;;;;;18.38;100.00;96367.03;4956021;29;20265;-77
2021/08/25 01:04:36;;;;;;;3.43;2.87;;;;;;;18.53;100.00;96370.28;4956631;28;20193;-76
2021/08/25 01:07:05;;;;;;;3.57;3.27;;;;;;;18.50;100.00;96363.56;4956271;29;20189;-77
2021/08/25 01:09:32;;;;;;;5.60;3.70;;;;;;;18.57;100.00;96357.44;4956074;28;20239;-76
2021/08/25 01:12:00;;;;;;;3.23;2.93;;;;;;;18.38;100.00;96361.72;4956207;28;20205;-77
2021/08/25 01:14:27;;;;;;;6.00;3.73;;;;;;;18.38;100.00;96351.88;4956684;28;20206;-77
2021/08/25 01:16:55;;;;;;;5.13;3.37;;;;;;;18.33;100.00;96351.69;4955825;28;20292;-77
2021/08/25 01:19:25;;;;;;;2.90;2.67;;;;;;;18.34;100.00;96344.53;4956013;29;20227;-77
2021/08/25 01:21:53;;;;;;;3.80;3.47;;;;;;;18.36;100.00;96345.97;4955734;28;20293;-77
2021/08/25 01:24:22;;;;;;;4.33;3.00;;;;;;;18.30;100.00;96339.63;4955935;28;20296;-77
2021/08/25 01:26:53;;;;;;;3.80;3.17;;;;;;;18.12;100.00;96318.16;4955714;28;20212;-77
2021/08/25 01:29:26;;;;;;;3.70;3.10;;;;;;;18.32;100.00;96317.31;4955117;28;20245;-77
2021/08/25 01:31:53;;;;;;;3.63;3.33;;;;;;;18.47;100.00;96321.38;4955711;29;20201;-77
2021/08/25 01:34:21;;;;;;;4.00;3.50;;;;;;;18.51;100.00;96319.13;4955739;28;20567;-77
2021/08/25 01:36:50;;;;;;;4.23;3.03;;;;;;;18.47;100.00;96317.91;4955264;28;20214;-77
2021/08/25 01:39:18;;;;;;;4.30;3.30;;;;;;;18.35;100.00;96307.06;4955552;29;20202;-77
2021/08/25 01:41:46;;;;;;;3.33;3.03;;;;;;;18.54;100.00;96311.56;4955330;28;20304;-77
2021/08/25 01:44:14;;;;;;;3.80;3.37;;;;;;;18.47;100.00;96304.63;4955408;28;20229;-77
2021/08/25 01:46:43;;;;;;;3.37;3.07;;;;;;;18.48;100.00;96303.56;4955205;28;20212;-77
2021/08/25 01:49:12;;;;;;;3.40;3.10;;;;;;;18.56;100.00;96298.03;4955331;29;20686;-76
2021/08/25 01:51:41;;;;;;;3.90;3.30;;;;;;;18.49;100.00;96307.88;4954821;28;20202;-76
2021/08/25 01:54:09;;;;;;;3.10;2.80;;;;;;;18.50;100.00;96307.69;4955502;29;20216;-76
2021/08/25 01:56:36;;;;;;;3.57;3.23;;;;;;;18.53;100.00;96309.94;4954962;28;20198;-76
2021/08/25 01:59:05;;;;;;;3.50;3.20;;;;;;;18.47;100.00;96309.94;4955195;29;20253;-75
2021/08/25 02:01:32;;;;;;;5.37;3.57;;;;;;;18.45;100.00;96306.66;4954979;28;20854;-76
2021/08/25 02:04:02;;;;;;;6.43;3.73;;;;;;;18.56;100.00;96307.84;4955141;29;20198;-76
2021/08/25 02:06:30;;;;;;;3.27;3.03;;;;;;;18.44;100.00;96316.47;4955204;28;20233;-76
2021/08/25 02:08:57;;;;;;;4.33;3.97;;;;;;;18.37;100.00;96318.34;4955063;28;20198;-76
2021/08/25 02:11:25;;;;;;;3.47;3.17;;;;;;;18.50;100.00;96317.50;4954764;28;20316;-77
2021/08/25 02:13:52;;;;;;;4.07;3.00;;;;;;;18.35;100.00;96319.56;4954715;29;20198;-76
2021/08/25 02:16:20;;;;;;;3.80;3.40;;;;;;;18.24;100.00;96319.16;4954759;28;20198;-76
2021/08/25 02:18:48;;;;;;;5.77;3.10;;;;;;;18.14;100.00;96313.41;4954948;29;20198;-76
2021/08/25 02:21:16;;;;;;;3.10;2.90;;;;;;;18.09;100.00;96307.91;4954592;28;20198;-77
2021/08/25 02:23:43;;;;;;;3.37;3.07;;;;;;;18.01;100.00;96310.75;4954787;29;20206;-76
2021/08/25 02:26:16;;;;;;;3.50;3.23;;;;;;;17.95;100.00;96303.63;4954984;28;20194;-76
2021/08/25 02:28:45;;;;;;;3.73;3.43;;;;;;;18.06;100.00;96309.13;4954665;29;20194;-76
2021/08/25 02:31:12;;;;;;;3.50;3.30;;;;;;;18.04;100.00;96310.34;4954811;29;20248;-76
2021/08/25 02:33:39;;;;;;;3.97;3.37;;;;;;;17.94;100.00;96300.13;4954345;29;20236;-76
2021/08/25 02:36:07;;;;;;;4.47;4.03;;;;;;;17.96;100.00;96302.59;4954497;28;20198;-76
2021/08/25 02:38:37;;;;;;;3.53;3.23;;;;;;;17.92;100.00;96299.50;4954349;29;20643;-76
2021/08/25 02:41:05;;;;;;;4.83;3.80;;;;;;;18.02;100.00;96302.59;4953256;28;20634;-76
2021/08/25 02:43:33;;;;;;;3.70;3.37;;;;;;;17.90;100.00;96306.88;4954209;29;20248;-77
2021/08/25 02:46:01;;;;;;;4.90;3.57;;;;;;;17.82;100.00;96307.88;4954396;29;20209;-76
2021/08/25 02:48:28;;;;;;;3.80;3.50;;;;;;;17.65;100.00;96311.91;4954163;28;20209;-76
2021/08/25 02:50:55;;;;;;;4.00;3.70;;;;;;;17.75;100.00;96301.72;4954035;29;20240;-76
2021/08/25 02:53:23;;;;;;;4.37;3.67;;;;;;;17.74;100.00;96304.59;4954527;28;20205;-76
2021/08/25 02:55:51;;;;;;;3.70;3.40;;;;;;;17.77;100.00;96302.38;4954221;29;20298;-76
2021/08/25 02:58:19;;;;;;;8.20;3.30;;;;;;;17.73;100.00;96298.44;4954095;28;20650;-76
2021/08/25 03:00:46;;;;;;;4.50;3.50;;;;;;;17.71;100.00;96297.81;4953882;29;20236;-76
2021/08/25 03:03:13;;;;;;;6.77;3.77;;;;;;;17.68;100.00;96303.53;4953944;28;20770;-76
2021/08/25 03:05:40;;;;;;;3.13;2.93;;;;;;;17.51;100.00;96307.59;4954040;29;20198;-76
2021/08/25 03:08:08;;;;;;;3.60;3.20;;;;;;;17.47;100.00;96303.72;4953715;28;20212;-77
2021/08/25 03:10:35;;;;;;;4.17;3.73;;;;;;;17.49;100.00;96306.97;4954021;29;20225;-76
2021/08/25 03:13:04;;;;;;;3.70;3.40;;;;;;;17.65;100.00;96305.78;4953829;28;20208;-76
2021/08/25 03:15:31;;;;;;;3.70;3.40;;;;;;;17.78;100.00;96309.31;4953909;29;20201;-76
2021/08/25 03:17:58;;;;;;;4.87;3.67;;;;;;;17.73;100.00;96309.06;4954139;29;20202;-77
2021/08/25 03:20:26;;;;;;;4.10;3.03;;;;;;;17.69;100.00;96313.16;4953707;29;20204;-77
2021/08/25 03:22:53;;;;;;;4.87;4.03;;;;;;;17.61;100.00;96305.38;4953711;28;20198;-76
2021/08/25 03:25:20;;;;;;;5.53;3.73;;;;;;;17.63;100.00;96313.97;4953927;29;20252;-76
2021/08/25 03:27:47;;;;;;;4.03;3.73;;;;;;;17.56;100.00;96307.81;4954277;29;20201;-77
2021/08/25 03:30:16;;;;;;;3.90;3.60;;;;;;;17.42;100.00;96309.59;4953791;28;20727;-77
2021/08/25 03:32:43;;;;;;;4.93;4.17;;;;;;;17.37;100.00;96309.41;4953908;29;20649;-77
2021/08/25 03:35:11;;;;;;;4.63;3.87;;;;;;;17.01;100.00;96317.66;4953741;29;20258;-77
2021/08/25 03:37:38;;;;;;;5.63;4.10;;;;;;;17.15;100.00;96313.22;4953578;28;20213;-76
2021/08/25 03:40:08;;;;;;;3.90;3.60;;;;;;;17.02;100.00;96306.00;4954009;29;20202;-76
2021/08/25 03:42:35;;;;;;;4.20;3.90;;;;;;;17.09;100.00;96312.97;4953339;28;20230;-76
2021/08/25 03:45:03;;;;;;;13.83;4.33;;;;;;;17.08;100.00;96314.00;4953923;28;20209;-76
2021/08/25 03:47:32;;;;;;;6.70;3.97;;;;;;;16.96;100.00;96307.63;4953427;29;20205;-77
2021/08/25 03:49:59;;;;;;;6.20;3.80;;;;;;;16.87;100.00;96311.47;4953558;29;20211;-74
2021/08/25 03:52:26;;;;;;;5.43;3.87;;;;;;;16.91;100.00;96323.31;4955391;28;20260;-76
2021/08/25 03:54:54;;;;;;;4.83;3.73;;;;;;;16.91;100.00;96325.97;4957359;29;20212;-77
2021/08/25 03:57:21;;;;;;;4.30;3.73;;;;;;;16.93;100.00;96326.59;4957446;28;20260;-77
2021/08/25 03:59:48;;;;;;;4.30;3.90;;;;;;;17.02;100.00;96322.75;4957429;28;20752;-76
2021/08/25 04:02:16;;;;;;;6.70;4.07;;;;;;;17.22;100.00;96330.00;4957538;28;20212;-77
2021/08/25 04:04:45;;;;;;;5.67;3.90;;;;;;;17.27;100.00;96330.22;4957387;29;20228;-77
2021/08/25 04:07:12;;;;;;;7.70;4.77;;;;;;;17.26;100.00;96333.91;4957070;29;20204;-76
2021/08/25 04:09:40;;;;;;;4.27;3.87;;;;;;;17.18;100.00;96334.91;4957416;28;20204;-77
2021/08/25 04:12:08;;;;;;;10.10;4.73;;;;;;;17.31;100.00;96337.56;4956947;28;20236;-77
2021/08/25 04:14:35;;;;;;;4.13;3.73;;;;;;;17.32;100.00;96333.09;4957281;29;20640;-77
2021/08/25 04:17:03;;;;;;;5.23;4.37;;;;;;;17.37;100.00;96330.66;4956805;29;20241;-77
2021/08/25 04:19:30;;;;;;;4.87;4.03;;;;;;;17.49;100.00;96338.84;4957039;28;20292;-77
2021/08/25 04:21:59;;;;;;;7.00;4.23;;;;;;;17.55;100.00;96343.38;4957202;29;20251;-77
2021/08/25 04:24:26;;;;;;;8.23;3.97;;;;;;;17.36;100.00;96342.31;4956760;28;20288;-77
2021/08/25 04:26:53;;;;;;;5.30;4.90;;;;;;;17.32;100.00;96339.22;4956792;28;20244;-77
2021/08/25 04:29:21;;;;;;;7.00;4.50;;;;;;;17.34;100.00;96341.69;4956829;28;20292;-77
2021/08/25 04:31:48;;;;;;;5.90;4.63;;;;;;;17.35;100.00;96333.53;4957048;28;20229;-77
2021/08/25 04:34:15;;;;;;;4.73;4.33;;;;;;;17.32;100.00;96327.78;4956748;29;20691;-77
2021/08/25 04:36:43;;;;;;;4.97;4.57;;;;;;;17.37;100.00;96324.53;4956534;29;20298;-77
2021/08/25 04:39:11;;;;;;;4.77;4.37;;;;;;;17.40;100.00;96326.78;4956757;29;20771;-77
2021/08/25 04:41:39;;;;;;;4.93;4.00;;;;;;;17.47;100.00;96324.97;4956553;28;20597;-77
2021/08/25 04:44:06;;;;;;;5.40;4.70;;;;;;;17.43;100.00;96329.06;4956688;28;20237;-77
2021/08/25 04:46:34;;;;;;;4.60;4.20;;;;;;;17.34;100.00;96326.56;4956225;28;20198;-77
2021/08/25 04:49:02;;;;;;;5.20;4.20;;;;;;;17.39;100.00;96319.81;4956620;29;20238;-77
2021/08/25 04:51:30;;;;;;;4.87;4.37;;;;;;;17.48;100.00;96327.41;4956219;29;20321;-77
2021/08/25 04:53:57;;;;;;;4.23;3.93;;;;;;;17.50;100.00;96319.25;4956169;28;20272;-77
2021/08/25 04:56:26;;;;;;;6.97;4.80;;;;;;;17.61;100.00;96318.66;4956727;28;20304;-77
2021/08/25 04:58:53;;;;;;;9.80;4.70;;;;;;;17.75;100.00;96325.63;4956669;29;20297;-77
2021/08/25 05:01:20;;;;;;;6.33;5.23;;;;;;;17.77;100.00;96328.97;4956221;29;20236;-77
2021/08/25 05:03:48;;;;;;;10.10;5.33;;;;;;;17.87;100.00;96320.56;4955516;28;20697;-77
2021/08/25 05:06:15;;;;;;;21.63;5.40;;;;;;;17.81;100.00;96318.72;4955895;29;20683;-77
2021/08/25 05:08:42;;;;;;;8.87;5.50;;;;;;;17.87;100.00;96315.25;4956361;28;20201;-77
2021/08/25 05:11:10;;;;;;;10.30;4.73;;;;;;;17.98;100.00;96319.16;4955906;29;20235;-78
2021/08/25 05:13:39;;;;;;;6.40;4.70;;;;;;;18.08;100.00;96314.25;4956101;28;20296;-77
2021/08/25 05:16:11;;;;;;;11.03;5.43;;;;;;;17.99;100.00;96320.78;4955745;29;20198;-77
2021/08/25 05:18:38;;;;;;;13.50;6.40;;;;;;;17.96;100.00;96311.38;4953991;29;20194;-77
2021/08/25 05:21:06;;;;;;;11.87;5.43;;;;;;;18.03;100.00;96308.72;4954440;29;20718;-77
2021/08/25 05:23:33;;;;;;;6.40;4.50;;;;;;;18.16;100.00;96308.72;4954351;29;20236;-76
2021/08/25 05:26:01;;;;;;;7.10;5.50;;;;;;;18.32;100.00;96307.47;4955784;29;20233;-76
2021/08/25 05:28:28;;;;;;;5.83;4.93;;;;;;;18.22;100.00;96307.06;4955727;28;20605;-76
2021/08/25 05:30:57;;;;;;;8.37;5.27;;;;;;;18.07;100.00;96309.94;4955728;28;20240;-77
2021/08/25 05:33:24;;;;;;;6.53;5.40;;;;;;;18.34;100.00;96307.28;4955741;29;20206;-77
2021/08/25 05:35:51;;;;;;;6.53;5.20;;;;;;;18.53;100.00;96317.06;4955501;28;20201;-77
2021/08/25 05:38:19;;;;;;;9.67;5.17;;;;;;;18.63;100.00;96308.66;4955480;29;20206;-77
2021/08/25 05:40:46;;;;;;;11.90;7.80;;;;;;;18.67;100.00;96313.38;4955587;29;20287;-77
2021/08/25 05:43:15;;;;;;;20.33;8.47;;;;;;;18.84;100.00;96320.94;4955303;29;20329;-77
2021/08/25 05:45:42;;;;;;;8.00;5.17;;;;;;;19.01;100.00;96308.78;4955852;28;20676;-77
2021/08/25 05:48:11;;;;;;;12.10;5.40;;;;;;;19.16;100.00;96298.72;4955666;29;20210;-77
2021/08/25 05:50:38;;;;;;;5.57;5.07;;;;;;;19.15;100.00;96299.72;4955419;28;20322;-76
2021/08/25 05:53:07;;;;;;;6.10;4.67;;;;;;;19.35;100.00;96296.16;4955209;28;20697;-77
2021/08/25 05:55:34;;;;;;;12.57;5.87;;;;;;;19.51;100.00;96295.66;4955307;29;20201;-77
2021/08/25 05:58:04;;;;;;;5.67;4.83;;;;;;;19.49;100.00;96298.53;4955252;28;20297;-77
2021/08/25 06:00:31;;;;;;;5.47;4.97;;;;;;;19.69;100.00;96292.28;4955327;28;20201;-77
2021/08/25 06:02:58;;;;;;;5.67;5.13;;;;;;;19.85;100.00;96290.97;4955063;28;20208;-77
2021/08/25 06:05:27;;;;;;;6.23;5.63;;;;;;;19.91;100.00;96285.56;4955459;29;20210;-77
2021/08/25 06:07:55;;;;;;;5.73;5.00;;;;;;;20.08;100.00;96274.34;4955195;28;20228;-77
2021/08/25 06:10:23;;;;;;;5.40;4.50;;;;;;;20.10;100.00;96267.78;4955353;29;20574;-77
2021/08/25 06:12:50;;;;;;;9.97;5.80;;;;;;;20.34;100.00;96254.63;4954863;28;20226;-77
2021/08/25 06:15:17;;;;;;;5.67;5.17;;;;;;;20.52;100.00;96256.53;4954746;28;20202;-80
2021/08/25 06:17:44;;;;;;;5.80;5.30;;;;;;;20.84;100.00;96254.53;4954801;28;20208;-78
2021/08/25 06:20:12;;;;;;;5.30;4.80;;;;;;;20.81;100.00;96245.09;4955106;29;20206;-77
2021/08/25 06:22:41;;;;;;;6.03;5.53;;;;;;;21.00;100.00;96251.25;4954632;28;20202;-78
2021/08/25 06:25:10;;;;;;;5.90;5.37;;;;;;;21.33;100.00;96253.47;4954783;29;20305;-78
2021/08/25 06:27:37;;;;;;;5.67;5.17;;;;;;;21.50;100.00;96263.59;4953296;29;20210;-78
2021/08/25 06:43:00;;;;;;;7.00;6.03;;;;;;;22.50;100.00;96274.34;5085603;28;20962;-81
2021/08/25 06:45:27;;;;;;;6.90;5.60;;;;;;;22.64;100.00;96274.91;5086279;28;20252;-81
2021/08/25 06:47:54;;;;;;;6.67;5.97;;;;;;;22.54;100.00;96262.13;5130424;27;20550;-81
2021/08/25 06:50:21;;;;;;;8.40;6.53;;;;;;;22.52;100.00;96269.59;5137851;27;20188;-81
2021/08/25 06:52:49;;;;;;;7.13;6.50;;;;;;;22.51;100.00;96269.81;5170571;27;20193;-80
2021/08/25 06:55:16;;;;;;;6.93;6.33;;;;;;;22.85;100.00;96273.50;5192671;27;20223;-81
2021/08/25 06:57:43;;;;;;;7.47;6.87;;;;;;;23.06;100.00;96273.94;5192451;27;20195;-81
2021/08/25 07:00:12;;;;;;;7.30;6.70;;;;;;;23.04;100.00;96273.38;5192112;27;20560;-81
2021/08/25 07:02:40;;;;;;;7.50;6.57;;;;;;;23.20;100.00;96268.06;5192055;27;20192;-81
2021/08/25 07:05:08;;;;;;;7.97;7.17;;;;;;;23.22;100.00;96267.84;5192461;27;20215;-81
2021/08/25 07:07:35;;;;;;;7.30;6.60;;;;;;;23.35;100.00;96272.13;5191697;27;20683;-81
2021/08/25 07:10:03;;;;;;;6.33;5.80;;;;;;;23.67;100.00;96284.00;5191988;27;20188;-82
2021/08/25 07:12:30;;;;;;;7.53;5.93;;;;;;;23.73;100.00;96295.66;5191649;27;20224;-81
2021/08/25 07:14:58;;;;;;;12.30;6.27;;;;;;;24.06;100.00;96296.75;5191823;27;20232;-81
2021/08/25 07:17:27;;;;;;;7.33;6.37;;;;;;;24.27;100.00;96300.59;5191579;27;20192;-81
2021/08/25 07:19:54;;;;;;;8.03;5.10;;;;;;;24.25;100.00;96316.94;5191926;27;20199;-82
2021/08/25 07:22:35;;;;;;;5.47;4.97;;;;;;;24.29;100.00;96328.84;5192260;27;20339;-81
2021/08/25 07:25:03;;;;;;;6.47;5.40;;;;;;;24.77;100.00;96327.44;5191881;27;20659;-80
2021/08/25 07:27:31;;;;;;;8.47;6.03;;;;;;;24.89;100.00;96316.59;5191549;27;20256;-80
2021/08/25 07:29:58;;;;;;;7.07;6.37;;;;;;;25.01;100.00;96305.69;5191693;27;20238;-81
2021/08/25 07:32:27;;;;;;;7.43;6.20;;;;;;;24.95;100.00;96312.09;5190603;27;20213;-81
2021/08/25 07:34:54;;;;;;;5.87;5.43;;;;;;;24.96;100.00;96330.66;5191615;27;20197;-81
2021/08/25 07:37:21;;;;;;;5.73;5.17;;;;;;;25.02;100.00;96335.03;5191628;27;20192;-81
2021/08/25 07:39:49;;;;;;;6.87;4.87;;;;;;;25.49;100.00;96331.88;5191987;27;20291;-81
2021/08/25 07:42:16;;;;;;;6.63;4.30;;;;;;;25.66;100.00;96347.94;5185755;27;20661;-81
2021/08/25 07:44:44;;;;;;;4.50;4.10;;;;;;;25.71;100.00;96339.94;5174579;27;20649;-81
2021/08/25 07:47:11;;;;;;;6.83;6.10;;;;;;;25.57;100.00;96334.16;5175269;27;20297;-81
2021/08/25 07:49:39;;;;;;;10.37;5.87;;;;;;;25.78;100.00;96327.09;5175016;27;20203;-81
2021/08/25 07:52:07;;;;;;;5.17;4.67;;;;;;;25.63;100.00;96329.63;5174595;27;20256;-81
2021/08/25 07:54:34;;;;;;;5.97;4.93;;;;;;;26.01;100.00;96335.97;5175436;27;20200;-82
2021/08/25 07:57:01;;;;;;;5.70;4.47;;;;;;;26.52;100.00;96336.44;5175605;27;20276;-82
2021/08/25 07:59:29;;;;;;;6.20;5.27;;;;;;;26.70;100.00;96336.00;5176751;27;20195;-80
2021/08/25 08:01:56;;;;;;;5.70;4.90;;;;;;;26.78;100.00;96338.25;5177106;27;20197;-82
2021/08/25 08:04:24;;;;;;;10.67;6.17;;;;;;;26.50;100.00;96325.91;5177500;27;20200;-82
2021/08/25 08:06:52;;;;;;;5.75;5.22;;;;;;;26.79;100.00;96331.78;5176959;27;20193;-83
2021/08/25 08:09:20;;;;;;;6.83;6.13;;;;;;;27.33;100.00;96335.31;5176987;27;20193;-83
2021/08/25 08:11:48;;;;;;;7.50;5.32;;;;;;;27.37;100.00;96329.16;5176539;27;20260;-83
2021/08/25 08:14:15;;;;;;;6.13;5.53;;;;;;;27.35;100.00;96331.28;5177273;27;20196;-82
2021/08/25 08:16:45;;;;;;;6.03;5.53;;;;;;;27.58;100.00;96335.44;5176894;27;20610;-80
2021/08/25 08:19:20;;;;;;;5.78;5.22;;;;;;;27.54;100.00;96323.53;5176799;27;20688;-84
2021/08/25 08:21:48;;;;;;;9.65;5.40;;;;;;;27.65;100.00;96327.88;5176601;27;20216;-81
2021/08/25 08:24:17;;;;;;;7.97;5.95;;;;;;;28.00;100.00;96322.88;5176795;27;20262;-80
2021/08/25 08:26:46;;;;;;;5.63;5.03;;;;;;;27.01;100.00;96317.31;5176378;27;20208;-80
2021/08/25 08:29:13;;;;;;;5.88;5.22;;;;;;;27.34;100.00;96312.66;5176915;27;20204;-80
2021/08/25 08:31:41;;;;;;;6.40;5.75;;;;;;;27.35;100.00;96315.09;5176267;27;20264;-80
2021/08/25 08:34:09;;;;;;;6.80;4.85;;;;;;;27.34;100.00;96315.38;5176196;27;20260;-80
2021/08/25 08:36:36;;;;;;;5.20;4.80;;;;;;;27.69;100.00;96318.19;5176286;27;20232;-80
2021/08/25 08:39:04;;;;;;;5.75;5.20;;;;;;;28.08;100.00;96328.53;5176356;27;20193;-80
2021/08/25 08:41:33;;;;;;;8.02;5.03;;;;;;;28.09;100.00;96330.19;5176081;27;20221;-80
2021/08/25 08:44:00;;;;;;;5.68;5.15;;;;;;;28.19;100.00;96332.84;5176528;27;20228;-80
2021/08/25 08:46:28;;;;;;;6.45;5.00;;;;;;;28.00;100.00;96333.66;5175733;27;20196;-80
2021/08/25 08:48:55;;;;;;;5.93;5.30;;;;;;;28.00;100.00;96331.78;5176145;27;20189;-80
2021/08/25 08:51:25;;;;;;;6.60;5.20;;;;;;;28.17;100.00;96326.13;5175808;27;20271;-80
2021/08/25 08:53:53;;;;;;;5.35;4.85;;;;;;;28.52;100.00;96324.53;5175045;27;20189;-80
2021/08/25 08:56:22;;;;;;;5.50;5.00;;;;;;;28.73;100.00;96325.31;5175583;27;20749;-80
2021/08/25 08:58:53;;;;;;;6.25;5.40;;;;;;;28.60;100.00;96329.38;5175920;27;20755;-80
2021/08/25 09:01:20;;;;;;;11.73;5.47;;;;;;;28.50;100.00;96315.88;5176037;27;20188;-80
2021/08/25 09:03:47;;;;;;;6.15;5.65;;;;;;;28.94;100.00;96321.50;5175941;27;20193;-80
2021/08/25 09:06:15;;;;;;;7.53;4.97;;;;;;;28.78;100.00;96319.88;5145357;27;20224;-80
2021/08/25 09:08:42;;;;;;;8.32;5.45;;;;;;;29.23;100.00;96318.19;5048631;28;20204;-80
2021/08/25 09:11:11;;;;;;;5.80;5.15;;;;;;;29.27;100.00;96309.25;5048908;28;20225;-80
2021/08/25 09:13:41;;;;;;;5.50;5.00;;;;;;;28.50;100.00;96319.38;5050016;28;20202;-80
2021/08/25 09:16:24;;;;;;;6.57;5.88;;;;;;;29.11;100.00;96305.78;5049858;28;20194;-80
2021/08/25 09:19:00;;;;;;;6.25;4.75;;;;;;;28.95;100.00;96306.88;5050227;28;20200;-80
2021/08/25 09:21:33;;;;;;;11.57;5.32;;;;;;;28.93;100.00;96306.34;5049381;28;20196;-80
2021/08/25 09:24:01;;;;;;;5.00;4.60;;;;;;;28.74;100.00;96292.59;5049846;28;20198;-80
2021/08/25 09:26:28;;;;;;;6.50;5.00;;;;;;;29.37;100.00;96292.97;5049516;28;20236;-80
2021/08/25 09:28:55;;;;;;;5.70;4.97;;;;;;;29.67;100.00;96293.91;5050031;28;20193;-80
2021/08/25 09:31:25;;;;;;;9.05;5.22;;;;;;;29.66;100.00;96286.09;5049437;28;20221;-81
2021/08/25 09:33:52;;;;;;;5.60;4.68;;;;;;;29.66;100.00;96289.59;5049776;28;20193;-80
2021/08/25 09:36:20;;;;;;;5.30;4.85;;;;;;;30.07;100.00;96283.91;5049515;28;20202;-80
2021/08/25 09:38:55;;;;;;;5.95;4.45;;;;;;;29.50;100.00;96269.88;5049943;28;20194;-80
2021/08/25 09:41:23;;;;;;;9.48;5.25;;;;;;;29.29;100.00;96269.16;5050009;28;20233;-80
2021/08/25 09:43:51;;;;;;;10.38;5.05;;;;;;;29.04;100.00;96271.97;5048753;28;20282;-80
2021/08/25 09:46:20;;;;;;;6.35;4.72;;;;;;;29.55;100.00;96255.50;5049160;28;20225;-80
2021/08/25 09:48:51;;;;;;;5.75;4.55;;;;;;;29.83;100.00;96254.00;5049342;28;20198;-81
2021/08/25 09:51:20;;;;;;;4.90;4.50;;;;;;;30.07;100.00;96244.06;5049144;28;20186;-80
2021/08/25 09:53:49;;;;;;;5.45;4.95;;;;;;;29.22;100.00;96246.19;5049083;28;20200;-80
2021/08/25 09:56:23;;;;;;;5.50;5.10;;;;;;;29.49;100.00;96241.19;5049189;28;20629;-80
2021/08/25 09:58:52;;;;;;;8.95;6.50;;;;;;;29.65;100.00;96244.66;5088573;27;20189;-81
2021/08/25 10:01:20;;;;;;;6.95;4.78;;;;;;;29.95;100.00;96235.47;5119146;27;20317;-81
2021/08/25 10:03:49;;;;;;;10.70;8.35;;;;;;;29.87;100.00;96236.09;5118458;27;20685;-80
2021/08/25 10:06:18;;;;;;;4.45;4.05;;;;;;;30.16;100.00;96238.03;5118820;27;20276;-81
2021/08/25 10:08:45;;;;;;;7.53;3.97;;;;;;;29.74;100.00;96242.13;5120240;27;20641;-81
2021/08/25 10:11:14;;;;;;;4.28;3.97;;;;;;;29.49;100.00;96246.59;5118465;27;20283;-80
2021/08/25 10:13:42;;;;;;;4.28;3.97;;;;;;;29.35;100.00;96245.59;5119856;27;20879;-81
2021/08/25 10:16:13;;;;;;;12.57;4.35;;;;;;;29.84;100.00;96248.28;5119516;27;20580;-81
2021/08/25 10:18:42;;;;;;;4.68;4.18;;;;;;;29.32;100.00;96254.28;5120241;27;20667;-82
2021/08/25 10:21:53;;;;;;;6.28;4.65;;;;;;;29.32;100.00;96249.66;5119084;27;20269;-82
2021/08/25 10:24:22;;;;;;;4.07;3.78;;;;;;;29.43;100.00;96258.53;5078923;27;20278;-82
2021/08/25 10:27:11;;;;;;;4.53;4.13;;;;;;;29.38;100.00;96259.38;5079772;27;20281;-82
2021/08/25 10:30:12;;;;;;;5.43;3.95;;;;;;;29.81;100.00;96250.75;5109300;28;20294;-82
2021/08/25 10:33:04;;;;;;;4.07;3.78;;;;;;;29.81;100.00;96248.03;5130157;28;20266;-81
2021/08/25 10:35:33;;;;;;;4.60;3.70;;;;;;;29.61;100.00;96243.56;5130544;28;20199;-82
2021/08/25 10:38:19;;;;;;;4.35;4.00;;;;;;;30.04;100.00;96255.47;5130491;28;20286;-81
2021/08/25 10:40:49;;;;;;;6.75;3.55;;;;;;;30.14;100.00;96249.16;5130529;28;20202;-81
2021/08/25 10:43:36;;;;;;;3.70;3.40;;;;;;;29.89;100.00;96244.72;5130213;28;20617;-81
2021/08/25 10:46:05;;;;;;;10.75;3.97;;;;;;;29.72;100.00;96241.59;5130585;28;20194;-81
2021/08/25 10:48:39;;;;;;;3.78;3.45;;;;;;;29.69;100.00;96247.59;5130693;28;20666;-80
2021/08/25 10:51:37;;;;;;;4.28;3.70;;;;;;;29.75;100.00;96239.13;5130217;28;20204;-83
2021/08/25 10:54:07;;;;;;;3.78;3.47;;;;;;;29.81;100.00;96248.84;5127599;28;20202;-83
2021/08/25 10:56:38;;;;;;;4.80;3.80;;;;;;;30.00;100.00;96251.72;5130287;28;20195;-82
2021/08/25 10:59:08;;;;;;;4.20;3.45;;;;;;;30.27;100.00;96251.25;5130586;28;20316;-81
2021/08/25 11:01:37;;;;;;;4.90;4.40;;;;;;;30.16;100.00;96244.25;5163638;27;20581;-83
2021/08/25 11:04:07;;;;;;;3.83;3.53;;;;;;;30.13;100.00;96244.81;5174070;27;20232;-83
2021/08/25 11:06:45;;;;;;;3.80;3.50;;;;;;;29.92;100.00;96244.16;5174215;27;20231;-81
2021/08/25 11:09:26;;;;;;;4.47;4.07;;;;;;;29.69;100.00;96245.69;5174174;27;20181;-81
2021/08/25 11:12:01;;;;;;;3.80;3.47;;;;;;;29.76;100.00;96250.81;5174105;27;20669;-81
2021/08/25 11:14:32;;;;;;;4.55;4.00;;;;;;;30.00;100.00;96246.28;5174232;27;20177;-80
2021/08/25 11:17:05;;;;;;;5.93;3.97;;;;;;;30.18;100.00;96241.28;5173612;27;20181;-79
2021/08/25 11:19:36;;;;;;;4.18;3.85;;;;;;;30.08;100.00;96240.25;5178383;27;20181;-79
2021/08/25 11:22:05;;;;;;;7.40;4.20;;;;;;;30.30;100.00;96233.59;5177760;27;20182;-81
2021/08/25 11:24:41;;;;;;;9.50;4.55;;;;;;;30.41;100.00;96235.09;5177882;27;20220;-81
2021/08/25 11:27:25;;;;;;;4.20;3.90;;;;;;;30.28;100.00;96238.50;5178021;27;20216;-81
2021/08/25 11:30:24;;;;;;;5.78;4.15;;;;;;;30.04;100.00;96225.66;5178034;27;20183;-81
2021/08/25 11:32:54;;;;;;;4.93;3.63;;;;;;;30.08;100.00;96213.16;5177516;27;20201;-79
2021/08/25 11:35:29;;;;;;;3.70;3.38;;;;;;;29.76;100.00;96208.25;5177395;27;20629;-79
2021/08/25 11:37:58;;;;;;;4.40;3.97;;;;;;;30.05;100.00;96211.00;5177313;27;20185;-79
2021/08/25 11:40:28;;;;;;;4.20;3.80;;;;;;;30.06;100.00;96198.25;5177464;27;20283;-79
2021/08/25 11:43:04;;;;;;;4.38;4.03;;;;;;;30.66;100.00;96200.69;5177101;27;20225;-80
2021/08/25 11:45:33;;;;;;;4.75;4.05;;;;;;;30.48;100.00;96199.50;5177623;27;20256;-79